Time;durP1;ratioP1;P1;durP2;ratioP2;P2;SDS_P1;SDS_P2;PMS_P1;PMS_P2;Temp;Humidity;BMP_temperature;BMP_pressure;BME280_temperature;BME280_humidity;BME280_pressure;Samples;Min_cycle;Max_cycle;Signal;HPM_P1;HPM_P2
2021/09/09 00:01:17;;;;;;;20.10;16.87;;;17.90;99.90;;;;;;4404876;32;20220;-63
2021/09/09 00:03:45;;;;;;;16.67;14.53;;;17.90;99.90;;;;;;4406380;32;20183;-63
2021/09/09 00:06:12;;;;;;;18.07;15.03;;;17.90;99.90;;;;;;4407062;32;20539;-64
2021/09/09 00:08:39;;;;;;;17.50;15.70;;;17.90;99.90;;;;;;4405768;32;20155;-64
2021/09/09 00:11:09;;;;;;;17.33;15.50;;;17.80;99.90;;;;;;4404934;32;20171;-65
2021/09/09 00:13:36;;;;;;;19.63;15.37;;;17.90;99.90;;;;;;4403913;32;20168;-64
2021/09/09 00:16:03;;;;;;;17.27;15.33;;;17.90;99.90;;;;;;4405588;32;20159;-64
2021/09/09 00:18:30;;;;;;;18.07;15.00;;;17.80;99.90;;;;;;4405826;32;20162;-65
2021/09/09 00:20:59;;;;;;;18.33;15.77;;;17.80;99.90;;;;;;4406089;32;20503;-64
2021/09/09 00:23:26;;;;;;;18.43;16.27;;;17.80;99.90;;;;;;4405429;32;20587;-64
2021/09/09 00:25:53;;;;;;;20.80;16.30;;;17.70;99.90;;;;;;4404473;32;20163;-64
2021/09/09 00:28:19;;;;;;;19.57;17.13;;;17.70;99.90;;;;;;4405440;32;20545;-63
2021/09/09 00:30:46;;;;;;;18.33;15.87;;;17.70;99.90;;;;;;4406571;32;20174;-64
2021/09/09 00:33:13;;;;;;;19.00;16.97;;;17.70;99.90;;;;;;4404295;32;20613;-64
2021/09/09 00:35:40;;;;;;;17.80;15.97;;;17.70;99.90;;;;;;4405046;32;20207;-63
2021/09/09 00:38:08;;;;;;;19.03;16.13;;;17.60;99.90;;;;;;4404986;32;20167;-64
2021/09/09 00:40:35;;;;;;;19.97;17.50;;;17.60;99.90;;;;;;4405343;32;20647;-65
2021/09/09 00:43:02;;;;;;;20.80;17.13;;;17.60;99.90;;;;;;4404466;32;20559;-63
2021/09/09 00:45:29;;;;;;;19.50;17.40;;;17.60;99.90;;;;;;4404274;32;20215;-64
2021/09/09 00:47:56;;;;;;;20.10;17.53;;;17.50;99.90;;;;;;4401235;32;20271;-64
2021/09/09 00:50:23;;;;;;;21.77;16.60;;;17.40;99.90;;;;;;4406076;32;20163;-64
2021/09/09 00:52:51;;;;;;;21.23;18.47;;;17.40;99.90;;;;;;4405025;32;20155;-65
2021/09/09 00:55:20;;;;;;;21.27;16.83;;;17.40;99.90;;;;;;4404617;32;20179;-66
2021/09/09 00:57:48;;;;;;;20.33;17.23;;;17.40;99.90;;;;;;4404820;32;20152;-66
2021/09/09 01:00:18;;;;;;;17.73;15.93;;;17.40;99.90;;;;;;4404803;32;20183;-64
2021/09/09 01:02:45;;;;;;;23.30;16.27;;;17.30;99.90;;;;;;4405338;32;20260;-63
2021/09/09 01:05:12;;;;;;;19.30;16.97;;;17.30;99.90;;;;;;4406905;32;20500;-63
2021/09/09 01:07:40;;;;;;;20.33;16.80;;;17.30;99.90;;;;;;4405366;32;20193;-65
2021/09/09 01:10:08;;;;;;;22.83;18.00;;;17.20;99.90;;;;;;4406644;32;20180;-62
2021/09/09 01:12:36;;;;;;;20.63;17.50;;;17.20;99.90;;;;;;4404802;32;20226;-65
2021/09/09 01:15:04;;;;;;;20.80;18.20;;;17.20;99.90;;;;;;4405251;32;20457;-64
2021/09/09 01:17:30;;;;;;;20.93;18.63;;;17.20;99.90;;;;;;4404634;32;20171;-62
2021/09/09 01:20:00;;;;;;;19.77;17.67;;;17.10;99.90;;;;;;4405655;32;20176;-66
2021/09/09 01:22:27;;;;;;;19.40;17.27;;;17.10;99.90;;;;;;4405621;32;20547;-63
2021/09/09 01:24:55;;;;;;;21.67;17.53;;;17.10;99.90;;;;;;4404647;32;20206;-63
2021/09/09 01:27:21;;;;;;;20.33;18.13;;;17.00;99.90;;;;;;4405537;32;20577;-64
2021/09/09 01:29:49;;;;;;;20.70;18.50;;;17.00;99.90;;;;;;4406045;32;20200;-64
2021/09/09 01:32:17;;;;;;;20.87;18.67;;;16.90;99.90;;;;;;4404186;32;20218;-64
2021/09/09 01:34:47;;;;;;;20.60;18.47;;;16.90;99.90;;;;;;4404317;32;20175;-63
2021/09/09 01:37:14;;;;;;;27.73;19.93;;;16.90;99.90;;;;;;4406431;32;20172;-63
2021/09/09 01:39:44;;;;;;;24.60;18.77;;;16.80;99.90;;;;;;4407415;32;20212;-64
2021/09/09 01:42:12;;;;;;;24.27;19.83;;;16.80;99.90;;;;;;4407163;32;20215;-63
2021/09/09 01:44:41;;;;;;;25.67;19.43;;;16.80;99.90;;;;;;4407387;32;20182;-63
2021/09/09 01:47:08;;;;;;;23.73;19.47;;;16.80;99.90;;;;;;4407282;32;20203;-63
2021/09/09 01:49:35;;;;;;;21.80;17.97;;;16.80;99.90;;;;;;4407470;32;20198;-63
2021/09/09 01:52:02;;;;;;;21.27;18.43;;;16.80;99.90;;;;;;4407013;32;20223;-64
2021/09/09 01:54:28;;;;;;;22.60;17.90;;;16.70;99.90;;;;;;4407975;32;20215;-62
2021/09/09 01:56:55;;;;;;;20.80;18.60;;;16.80;99.90;;;;;;4408848;32;20301;-63
2021/09/09 01:59:23;;;;;;;21.00;18.77;;;16.70;99.90;;;;;;4399711;32;20188;-63
2021/09/09 02:01:50;;;;;;;22.30;20.00;;;16.70;99.90;;;;;;4395790;32;20148;-62
2021/09/09 02:04:17;;;;;;;24.17;21.07;;;16.60;99.90;;;;;;4393615;32;20445;-63
2021/09/09 02:06:44;;;;;;;21.50;19.20;;;16.60;99.90;;;;;;4399752;32;20151;-64
2021/09/09 02:09:11;;;;;;;24.00;19.87;;;16.60;99.90;;;;;;4407608;32;20148;-62
2021/09/09 02:11:37;;;;;;;22.87;20.27;;;16.50;99.90;;;;;;4407083;32;20212;-63
2021/09/09 02:14:04;;;;;;;23.93;21.03;;;16.50;99.90;;;;;;4408630;32;20531;-63
2021/09/09 02:16:33;;;;;;;23.07;20.10;;;16.50;99.90;;;;;;4406756;32;20234;-63
2021/09/09 02:18:59;;;;;;;25.23;21.57;;;16.50;99.90;;;;;;4407696;32;20175;-63
2021/09/09 02:21:26;;;;;;;24.17;19.83;;;16.50;99.90;;;;;;4406579;32;20225;-62
2021/09/09 02:23:53;;;;;;;23.57;20.30;;;16.40;99.90;;;;;;4408785;32;20198;-62
2021/09/09 02:26:21;;;;;;;25.00;20.73;;;16.50;99.90;;;;;;4406885;32;20610;-63
2021/09/09 02:28:48;;;;;;;22.97;20.37;;;16.40;99.90;;;;;;4406560;32;20152;-64
2021/09/09 02:31:14;;;;;;;24.43;20.17;;;16.40;99.90;;;;;;4404074;32;20195;-62
2021/09/09 02:33:43;;;;;;;26.00;20.57;;;16.40;99.90;;;;;;4405776;32;20480;-65
2021/09/09 02:36:09;;;;;;;27.13;21.00;;;16.30;99.90;;;;;;4407465;32;20548;-63
2021/09/09 02:38:37;;;;;;;23.47;20.23;;;16.30;99.90;;;;;;4406446;32;20210;-65
2021/09/09 02:41:04;;;;;;;27.30;20.37;;;16.30;99.90;;;;;;4406604;32;20171;-64
2021/09/09 02:43:31;;;;;;;23.97;19.83;;;16.20;99.90;;;;;;4408107;32;20222;-62
2021/09/09 02:45:58;;;;;;;26.50;21.20;;;16.30;99.90;;;;;;4406685;32;20177;-63
2021/09/09 02:48:26;;;;;;;25.90;22.07;;;16.20;99.90;;;;;;4405987;32;20211;-62
2021/09/09 02:50:54;;;;;;;25.30;21.63;;;16.20;99.90;;;;;;4406721;32;20178;-66
2021/09/09 02:53:22;;;;;;;25.03;20.80;;;16.20;99.90;;;;;;4406290;32;20179;-63
2021/09/09 02:55:49;;;;;;;24.10;20.37;;;16.10;99.90;;;;;;4406661;32;20148;-63
2021/09/09 02:58:18;;;;;;;25.63;20.37;;;16.10;99.90;;;;;;4406278;32;20592;-65
2021/09/09 03:00:45;;;;;;;24.70;20.53;;;16.10;99.90;;;;;;4405588;32;20159;-62
2021/09/09 03:03:12;;;;;;;26.03;21.13;;;16.10;99.90;;;;;;4405421;32;20211;-62
2021/09/09 03:05:39;;;;;;;25.60;21.23;;;16.10;99.90;;;;;;4408014;32;20564;-62
2021/09/09 03:08:07;;;;;;;26.40;23.13;;;16.10;99.90;;;;;;4407872;32;20170;-63
2021/09/09 03:10:34;;;;;;;25.77;20.87;;;16.00;99.90;;;;;;4407632;32;20218;-65
2021/09/09 03:13:01;;;;;;;28.73;23.57;;;16.00;99.90;;;;;;4406366;32;20143;-63
2021/09/09 03:15:27;;;;;;;25.70;22.60;;;16.00;99.90;;;;;;4406300;32;20658;-64
2021/09/09 03:17:54;;;;;;;25.20;22.57;;;16.00;99.90;;;;;;4406236;32;20224;-63
2021/09/09 03:20:21;;;;;;;24.13;21.07;;;15.90;99.90;;;;;;4405499;32;20159;-63
2021/09/09 03:22:48;;;;;;;26.33;22.90;;;15.90;99.90;;;;;;4405487;32;20214;-63
2021/09/09 03:25:17;;;;;;;30.33;23.57;;;15.90;99.90;;;;;;4405859;32;20227;-62
2021/09/09 03:27:44;;;;;;;28.90;22.83;;;15.90;99.90;;;;;;4406328;32;20676;-62
2021/09/09 03:30:12;;;;;;;29.97;23.80;;;15.90;99.90;;;;;;4405693;32;20155;-62
2021/09/09 03:32:39;;;;;;;25.10;22.57;;;15.90;99.90;;;;;;4406448;32;20159;-63
2021/09/09 03:35:06;;;;;;;27.20;21.43;;;15.80;99.90;;;;;;4405642;32;20155;-63
2021/09/09 03:37:33;;;;;;;24.97;22.10;;;15.80;99.90;;;;;;4406034;32;20159;-64
2021/09/09 03:40:00;;;;;;;25.47;22.10;;;15.80;99.90;;;;;;4406762;32;20156;-63
2021/09/09 03:42:28;;;;;;;30.47;22.97;;;15.80;99.90;;;;;;4406242;32;20647;-66
2021/09/09 03:44:58;;;;;;;28.27;21.80;;;15.80;99.90;;;;;;4405687;32;20155;-61
2021/09/09 03:47:25;;;;;;;29.97;24.00;;;15.80;99.90;;;;;;4406013;32;20152;-63
2021/09/09 03:49:51;;;;;;;26.73;22.00;;;15.70;99.90;;;;;;4405828;32;20189;-63
2021/09/09 03:52:18;;;;;;;26.73;22.80;;;15.70;99.90;;;;;;4404908;32;20171;-64
2021/09/09 03:54:45;;;;;;;26.83;23.93;;;15.70;99.90;;;;;;4406206;32;20148;-62
2021/09/09 03:57:12;;;;;;;27.63;23.10;;;15.70;99.90;;;;;;4406363;32;20589;-64
2021/09/09 03:59:40;;;;;;;27.87;23.27;;;15.60;99.90;;;;;;4405429;32;20176;-62
2021/09/09 04:02:07;;;;;;;27.97;22.40;;;15.60;99.90;;;;;;4404855;32;20202;-63
2021/09/09 04:04:34;;;;;;;27.53;24.00;;;15.60;99.90;;;;;;4405605;32;20194;-63
2021/09/09 04:07:01;;;;;;;26.53;22.47;;;15.60;99.90;;;;;;4405531;32;20152;-65
2021/09/09 04:09:29;;;;;;;28.87;24.40;;;15.60;99.90;;;;;;4406899;32;20202;-63
2021/09/09 04:11:56;;;;;;;27.70;23.97;;;15.60;99.90;;;;;;4405316;32;20182;-63
2021/09/09 04:14:23;;;;;;;28.20;25.20;;;15.60;99.90;;;;;;4405287;32;20151;-65
2021/09/09 04:16:52;;;;;;;29.10;23.77;;;15.50;99.90;;;;;;4399401;32;20156;-62
2021/09/09 04:19:19;;;;;;;26.97;23.53;;;15.50;99.90;;;;;;4406584;32;20194;-63
2021/09/09 04:21:46;;;;;;;27.03;24.23;;;15.50;99.90;;;;;;4405066;32;20177;-63
2021/09/09 04:24:13;;;;;;;26.87;23.20;;;15.50;99.90;;;;;;4405016;32;20156;-63
2021/09/09 04:26:40;;;;;;;27.90;24.87;;;15.50;99.90;;;;;;4405397;32;20175;-63
2021/09/09 04:29:06;;;;;;;27.23;24.20;;;15.50;99.90;;;;;;4406450;32;20159;-63
2021/09/09 04:31:34;;;;;;;27.17;23.83;;;15.50;99.90;;;;;;4404642;32;20174;-65
2021/09/09 04:34:02;;;;;;;28.97;23.90;;;15.50;99.90;;;;;;4404078;32;20536;-64
2021/09/09 04:36:29;;;;;;;28.13;23.40;;;15.50;99.90;;;;;;4404823;32;20171;-64
2021/09/09 04:38:56;;;;;;;27.30;24.47;;;15.50;99.90;;;;;;4406375;32;20215;-63
2021/09/09 04:41:23;;;;;;;26.93;22.17;;;15.50;99.90;;;;;;4404645;32;20231;-63
2021/09/09 04:43:50;;;;;;;27.77;23.10;;;15.50;99.90;;;;;;4406543;32;20222;-64
2021/09/09 04:46:16;;;;;;;27.97;23.07;;;15.50;99.90;;;;;;4400822;32;20215;-63
2021/09/09 04:48:43;;;;;;;29.03;24.50;;;15.50;99.90;;;;;;4404746;32;20167;-63
2021/09/09 04:51:11;;;;;;;28.70;25.60;;;15.50;99.90;;;;;;4400661;32;20160;-65
2021/09/09 04:53:38;;;;;;;28.67;24.23;;;15.50;99.90;;;;;;4400959;32;20608;-64
2021/09/09 04:56:05;;;;;;;29.87;24.07;;;15.50;99.90;;;;;;4402088;32;20176;-62
2021/09/09 04:58:32;;;;;;;26.33;23.23;;;15.50;99.90;;;;;;4395217;32;20175;-62
2021/09/09 05:00:59;;;;;;;29.50;24.47;;;15.50;99.90;;;;;;4342522;32;20659;-63
2021/09/09 05:03:26;;;;;;;25.73;22.93;;;15.50;99.90;;;;;;4389093;32;20167;-64
2021/09/09 05:05:53;;;;;;;30.00;25.67;;;15.40;99.90;;;;;;4397149;32;20595;-62
2021/09/09 05:08:21;;;;;;;26.53;23.57;;;15.50;99.90;;;;;;4400570;32;20223;-61
2021/09/09 05:10:48;;;;;;;28.93;24.07;;;15.50;99.90;;;;;;4381446;32;20233;-62
2021/09/09 05:13:14;;;;;;;26.53;22.87;;;15.50;99.90;;;;;;4360595;32;20158;-64
2021/09/09 05:15:41;;;;;;;29.03;22.03;;;15.50;99.90;;;;;;4383977;32;20175;-61
2021/09/09 05:18:08;;;;;;;26.70;22.77;;;15.60;99.90;;;;;;4409521;32;20590;-61
2021/09/09 05:20:36;;;;;;;28.53;22.57;;;15.60;99.90;;;;;;4397389;32;20216;-62
2021/09/09 05:23:03;;;;;;;29.27;23.90;;;15.70;99.90;;;;;;4365003;32;20590;-65
2021/09/09 05:25:31;;;;;;;25.90;22.87;;;15.70;99.90;;;;;;4376980;32;20164;-63
2021/09/09 05:27:58;;;;;;;24.37;21.70;;;15.70;99.90;;;;;;4388755;32;20223;-63
2021/09/09 05:30:25;;;;;;;25.70;22.97;;;15.80;99.90;;;;;;4381703;32;20241;-63
2021/09/09 05:32:52;;;;;;;26.53;21.87;;;15.80;99.90;;;;;;4370975;32;20223;-62
2021/09/09 05:35:19;;;;;;;26.07;22.87;;;15.90;99.90;;;;;;4395402;32;20160;-62
2021/09/09 05:37:46;;;;;;;28.80;24.43;;;15.90;99.90;;;;;;4389850;32;20235;-62
2021/09/09 05:40:13;;;;;;;27.63;23.73;;;16.00;99.90;;;;;;4384367;32;20180;-62
2021/09/09 05:42:42;;;;;;;26.70;22.00;;;16.00;99.90;;;;;;4383962;32;20292;-62
2021/09/09 05:45:09;;;;;;;27.77;23.00;;;16.10;99.90;;;;;;4389480;32;20174;-61
2021/09/09 05:47:42;;;;;;;29.20;23.10;;;16.10;99.90;;;;;;4390835;32;20179;-63
2021/09/09 05:50:09;;;;;;;30.90;23.73;;;16.10;99.90;;;;;;4393755;32;20169;-62
2021/09/09 05:52:36;;;;;;;28.93;23.67;;;16.20;99.90;;;;;;4390136;32;20213;-61
2021/09/09 05:55:04;;;;;;;30.57;25.17;;;16.30;99.90;;;;;;4401471;32;20177;-61
2021/09/09 05:57:31;;;;;;;31.33;25.87;;;16.40;99.90;;;;;;4400579;32;20224;-63
2021/09/09 05:59:59;;;;;;;28.27;24.67;;;16.40;99.90;;;;;;4401953;32;20211;-62
2021/09/09 06:02:27;;;;;;;30.10;24.57;;;16.50;99.90;;;;;;4401595;32;20234;-62
2021/09/09 06:04:56;;;;;;;27.97;23.60;;;16.60;99.90;;;;;;4400007;32;20152;-62
2021/09/09 06:07:23;;;;;;;28.03;23.40;;;16.60;99.90;;;;;;4401117;32;20212;-62
2021/09/09 06:09:50;;;;;;;31.70;22.77;;;16.70;99.90;;;;;;4401649;32;20167;-61
2021/09/09 06:12:17;;;;;;;27.50;22.07;;;16.70;99.90;;;;;;4403199;32;20220;-62
2021/09/09 06:14:43;;;;;;;29.77;24.20;;;16.80;99.90;;;;;;4401922;32;20279;-62
2021/09/09 06:17:12;;;;;;;28.20;23.90;;;16.80;99.90;;;;;;4400981;32;20458;-61
2021/09/09 06:19:39;;;;;;;27.00;22.20;;;16.90;99.90;;;;;;4404341;32;20155;-62
2021/09/09 06:22:06;;;;;;;28.73;24.67;;;16.90;99.90;;;;;;4405504;32;20194;-62
2021/09/09 06:24:33;;;;;;;25.90;22.77;;;17.00;99.90;;;;;;4401299;32;20437;-62
2021/09/09 06:26:59;;;;;;;28.10;23.97;;;17.10;99.90;;;;;;4402794;32;20243;-62
2021/09/09 06:29:26;;;;;;;27.80;23.67;;;17.20;99.90;;;;;;4399849;32;20598;-61
2021/09/09 06:31:53;;;;;;;26.40;21.87;;;17.20;99.90;;;;;;4401731;32;20226;-61
2021/09/09 06:34:21;;;;;;;24.67;21.50;;;17.30;99.90;;;;;;4407349;32;20549;-62
2021/09/09 06:36:48;;;;;;;31.03;24.47;;;17.40;99.90;;;;;;4407028;32;20217;-62
2021/09/09 06:39:17;;;;;;;28.27;24.57;;;17.50;99.90;;;;;;4400417;32;20499;-62
2021/09/09 06:41:45;;;;;;;27.93;23.37;;;17.60;99.90;;;;;;4401293;32;20571;-62
2021/09/09 06:44:13;;;;;;;28.83;22.57;;;17.70;99.90;;;;;;4407535;32;20152;-62
2021/09/09 06:46:40;;;;;;;23.70;21.23;;;17.80;99.90;;;;;;4406122;32;20174;-61
2021/09/09 06:49:08;;;;;;;26.60;20.90;;;17.90;99.90;;;;;;4406912;32;20151;-61
2021/09/09 06:51:36;;;;;;;31.07;22.60;;;18.10;99.90;;;;;;4406258;32;20243;-62
2021/09/09 06:54:03;;;;;;;23.80;19.87;;;18.20;99.90;;;;;;4406586;32;20168;-62
2021/09/09 06:56:30;;;;;;;25.13;20.07;;;18.30;99.90;;;;;;4406231;32;20155;-62
2021/09/09 06:58:57;;;;;;;23.37;19.90;;;18.40;99.90;;;;;;4402737;32;20170;-62
2021/09/09 07:01:24;;;;;;;22.37;19.63;;;18.50;99.90;;;;;;4398102;32;20156;-62
2021/09/09 07:03:51;;;;;;;22.97;20.00;;;18.60;99.90;;;;;;4392655;32;20144;-62
2021/09/09 07:06:18;;;;;;;26.00;21.10;;;18.70;99.90;;;;;;4404692;32;20249;-62
2021/09/09 07:08:46;;;;;;;23.30;19.20;;;18.80;99.90;;;;;;4406807;32;20211;-62
2021/09/09 07:11:13;;;;;;;22.70;19.20;;;19.00;99.90;;;;;;4402120;32;20214;-62
2021/09/09 07:13:39;;;;;;;21.83;18.60;;;19.10;99.90;;;;;;4406599;32;20184;-62
2021/09/09 07:16:06;;;;;;;22.67;18.13;;;19.20;99.90;;;;;;4406305;32;20147;-62
2021/09/09 07:18:34;;;;;;;21.70;19.27;;;19.30;99.90;;;;;;4408056;32;20171;-62
2021/09/09 07:21:02;;;;;;;26.60;22.13;;;19.40;99.90;;;;;;4406214;32;20151;-62
2021/09/09 07:23:29;;;;;;;27.13;21.23;;;19.60;99.90;;;;;;4407689;32;20207;-62
2021/09/09 07:25:57;;;;;;;26.63;23.17;;;19.80;99.90;;;;;;4407817;32;20155;-62
2021/09/09 07:28:24;;;;;;;27.30;22.20;;;19.90;99.90;;;;;;4405848;32;20179;-63
2021/09/09 07:30:50;;;;;;;26.17;23.37;;;20.20;99.90;;;;;;4407502;32;20207;-62
2021/09/09 07:33:17;;;;;;;29.87;23.90;;;20.50;99.90;;;;;;4399642;32;20577;-62
2021/09/09 07:35:44;;;;;;;25.70;22.10;;;20.70;99.90;;;;;;4399343;32;20151;-62
2021/09/09 07:38:11;;;;;;;28.33;22.73;;;20.80;99.90;;;;;;4407059;32;20220;-62
2021/09/09 07:40:38;;;;;;;27.90;22.97;;;21.10;99.90;;;;;;4403583;32;20249;-63
2021/09/09 07:43:06;;;;;;;26.07;22.10;;;21.30;99.90;;;;;;4402998;32;20212;-63
2021/09/09 07:45:32;;;;;;;29.30;22.13;;;21.60;99.90;;;;;;4405567;32;20152;-63
2021/09/09 07:48:01;;;;;;;29.47;23.60;;;21.80;99.90;;;;;;4404587;32;20225;-64
2021/09/09 07:50:28;;;;;;;24.47;21.83;;;21.70;99.90;;;;;;4405784;32;20181;-64
2021/09/09 07:52:55;;;;;;;25.37;21.80;;;21.60;99.90;;;;;;4400434;32;20202;-63
2021/09/09 07:55:22;;;;;;;25.90;21.37;;;21.70;99.90;;;;;;4406662;32;20151;-62
2021/09/09 07:57:48;;;;;;;25.47;21.30;;;22.00;99.90;;;;;;4396387;32;20163;-63
2021/09/09 08:00:17;;;;;;;25.20;21.33;;;22.20;99.90;;;;;;4400146;32;20599;-63
2021/09/09 08:02:44;;;;;;;25.60;20.60;;;22.70;99.90;;;;;;4405283;32;20174;-65
2021/09/09 08:05:12;;;;;;;26.53;21.27;;;23.20;99.90;;;;;;4404908;32;20600;-64
2021/09/09 08:07:40;;;;;;;22.07;18.73;;;23.50;99.90;;;;;;4405420;32;20202;-62
2021/09/09 08:10:09;;;;;;;24.77;20.37;;;23.70;99.90;;;;;;4404492;32;20568;-63
2021/09/09 08:12:36;;;;;;;22.00;18.67;;;24.60;99.90;;;;;;4404884;32;20178;-63
2021/09/09 08:15:04;;;;;;;21.37;18.27;;;27.00;97.80;;;;;;4405333;32;20178;-62
2021/09/09 08:17:32;;;;;;;20.70;18.50;;;30.70;92.40;;;;;;4406741;32;20195;-64
2021/09/09 08:19:59;;;;;;;23.98;17.77;;;33.70;84.10;;;;;;4401931;32;20208;-63
2021/09/09 08:22:26;;;;;;;19.30;17.15;;;35.70;74.50;;;;;;4397353;32;20232;-63
2021/09/09 08:24:53;;;;;;;19.70;16.05;;;37.30;67.30;;;;;;4405767;32;20222;-64
2021/09/09 08:27:20;;;;;;;25.02;20.55;;;38.90;61.70;;;;;;4405326;32;20238;-62
2021/09/09 08:29:47;;;;;;;20.00;17.87;;;39.50;57.30;;;;;;4404607;32;20625;-63
2021/09/09 08:32:14;;;;;;;26.37;23.83;;;39.70;55.30;;;;;;4405144;32;20175;-62
2021/09/09 08:34:42;;;;;;;24.77;22.25;;;40.70;54.10;;;;;;4401856;32;20213;-65
2021/09/09 08:37:09;;;;;;;20.30;18.33;;;41.70;51.70;;;;;;4406366;32;20483;-64
2021/09/09 08:39:36;;;;;;;19.73;17.67;;;41.20;50.10;;;;;;4403158;32;20223;-64
2021/09/09 08:42:03;;;;;;;18.75;16.85;;;40.10;51.20;;;;;;4406304;32;20167;-64
2021/09/09 08:44:30;;;;;;;20.58;18.58;;;38.70;51.70;;;;;;4406160;32;20148;-65
2021/09/09 08:46:59;;;;;;;21.60;19.60;;;36.60;54.70;;;;;;4406593;32;20962;-65
2021/09/09 08:49:28;;;;;;;23.75;21.48;;;35.30;56.30;;;;;;4407903;32;20234;-63
2021/09/09 08:51:58;;;;;;;28.83;25.92;;;34.10;57.90;;;;;;4408830;32;20168;-63
2021/09/09 08:54:25;;;;;;;26.17;23.25;;;32.10;61.30;;;;;;4409437;32;20151;-62
2021/09/09 08:56:52;;;;;;;21.50;19.30;;;30.30;64.80;;;;;;4403206;32;20183;-62
2021/09/09 08:59:19;;;;;;;23.25;20.75;;;29.00;68.70;;;;;;4407622;32;20168;-61
2021/09/09 09:02:00;;;;;;;26.48;23.80;;;28.10;72.10;;;;;;4408045;32;20226;-62
2021/09/09 09:04:27;;;;;;;27.08;22.67;;;27.20;74.80;;;;;;4408049;32;20159;-62
2021/09/09 09:06:55;;;;;;;21.17;18.98;;;26.50;79.00;;;;;;4404447;32;20167;-63
2021/09/09 09:09:24;;;;;;;26.12;21.33;;;26.20;82.20;;;;;;4406699;32;20168;-64
2021/09/09 09:11:52;;;;;;;25.17;20.73;;;26.00;84.70;;;;;;4407249;32;20200;-65
2021/09/09 09:14:21;;;;;;;24.50;21.60;;;25.90;86.80;;;;;;4407144;32;20175;-64
2021/09/09 09:16:50;;;;;;;23.77;20.48;;;25.70;87.90;;;;;;4407496;32;20174;-65
2021/09/09 09:19:20;;;;;;;27.75;21.90;;;25.50;89.40;;;;;;4407481;32;20602;-63
2021/09/09 09:21:49;;;;;;;29.48;23.35;;;25.40;90.60;;;;;;4402851;32;20172;-62
2021/09/09 09:24:20;;;;;;;26.00;22.33;;;25.30;91.30;;;;;;4401365;32;20184;-63
2021/09/09 09:27:11;;;;;;;27.30;22.40;;;25.40;91.90;;;;;;4402395;32;20155;-63
2021/09/09 09:29:39;;;;;;;28.23;22.77;;;25.80;92.00;;;;;;4408394;32;20170;-63
2021/09/09 09:32:12;;;;;;;23.02;20.33;;;26.40;91.50;;;;;;4407145;32;20164;-63
2021/09/09 09:34:39;;;;;;;23.15;20.62;;;26.80;91.00;;;;;;4409295;32;20156;-63
2021/09/09 09:37:06;;;;;;;21.75;18.35;;;27.30;90.50;;;;;;4407194;32;20223;-63
2021/09/09 09:39:35;;;;;;;21.45;19.20;;;27.70;90.00;;;;;;4407648;32;20229;-62
2021/09/09 09:42:04;;;;;;;24.70;20.90;;;27.80;89.20;;;;;;4408550;32;20615;-63
2021/09/09 09:44:35;;;;;;;26.80;20.95;;;27.80;89.00;;;;;;4401139;32;20176;-62
2021/09/09 09:47:12;;;;;;;22.10;19.85;;;27.70;89.20;;;;;;4407272;32;20514;-62
2021/09/09 09:49:42;;;;;;;27.33;21.35;;;27.60;89.80;;;;;;4409268;32;20174;-63
2021/09/09 09:52:09;;;;;;;20.92;18.12;;;27.50;90.00;;;;;;4406868;32;20164;-63
2021/09/09 09:54:39;;;;;;;24.05;19.05;;;27.40;90.20;;;;;;4398808;32;20163;-63
2021/09/09 09:57:09;;;;;;;22.75;17.80;;;27.50;90.10;;;;;;4405374;32;20512;-63
2021/09/09 09:59:36;;;;;;;24.17;20.12;;;27.50;90.30;;;;;;4396470;32;20245;-62
2021/09/09 10:02:03;;;;;;;19.92;17.98;;;27.50;89.90;;;;;;4406744;32;20164;-65
2021/09/09 10:04:31;;;;;;;24.85;20.02;;;27.60;89.70;;;;;;4399410;32;20164;-65
2021/09/09 10:06:58;;;;;;;24.52;19.70;;;27.80;89.40;;;;;;4403162;32;20159;-66
2021/09/09 10:09:28;;;;;;;21.90;17.45;;;27.70;90.20;;;;;;4408004;32;20234;-65
2021/09/09 10:11:56;;;;;;;20.02;17.92;;;27.50;90.60;;;;;;4401954;32;20168;-64
2021/09/09 10:14:26;;;;;;;26.60;17.67;;;27.00;91.00;;;;;;4400166;32;20168;-63
2021/09/09 10:16:56;;;;;;;22.87;20.48;;;26.80;92.00;;;;;;4403634;32;20155;-64
2021/09/09 10:19:25;;;;;;;21.15;18.77;;;26.50;92.10;;;;;;4406740;32;20159;-65
2021/09/09 10:22:02;;;;;;;21.70;19.08;;;26.50;92.30;;;;;;4407355;32;20206;-63
2021/09/09 10:24:30;;;;;;;23.00;17.67;;;26.40;92.70;;;;;;4407770;32;20167;-63
2021/09/09 10:27:20;;;;;;;22.27;16.10;;;26.30;92.90;;;;;;4402470;32;20222;-64
2021/09/09 10:29:49;;;;;;;23.12;20.30;;;26.20;93.30;;;;;;4395145;32;20507;-63
2021/09/09 10:32:56;;;;;;;23.80;18.98;;;26.20;93.80;;;;;;4406482;32;20220;-63
2021/09/09 10:35:38;;;;;;;22.40;19.08;;;26.30;93.90;;;;;;4361907;32;20607;-64
2021/09/09 10:38:28;;;;;;;25.20;19.17;;;26.30;94.00;;;;;;4353501;32;20196;-63
2021/09/09 10:40:55;;;;;;;22.98;18.85;;;26.20;93.70;;;;;;4359752;32;20544;-63
2021/09/09 10:43:49;;;;;;;20.85;17.60;;;26.20;93.90;;;;;;4364538;32;20196;-63
2021/09/09 10:46:17;;;;;;;23.08;18.55;;;26.30;94.40;;;;;;4359552;33;20187;-63
2021/09/09 10:48:46;;;;;;;27.95;22.67;;;26.30;94.60;;;;;;4358599;33;20572;-63
2021/09/09 10:51:18;;;;;;;24.00;20.70;;;26.40;94.40;;;;;;4347449;32;20462;-63
2021/09/09 10:53:54;;;;;;;24.80;20.23;;;26.40;94.40;;;;;;4359659;32;20625;-66
2021/09/09 10:56:22;;;;;;;24.92;20.08;;;26.50;94.80;;;;;;4352321;33;20175;-63
2021/09/09 10:59:11;;;;;;;25.85;21.02;;;26.50;94.40;;;;;;4357312;32;20161;-64
2021/09/09 11:01:41;;;;;;;23.25;19.40;;;26.50;94.30;;;;;;4359171;32;20176;-65
2021/09/09 11:04:08;;;;;;;20.55;17.20;;;26.50;94.60;;;;;;4364062;32;20192;-63
2021/09/09 11:06:35;;;;;;;25.75;20.35;;;26.60;94.90;;;;;;4352770;32;20228;-63
2021/09/09 11:09:13;;;;;;;20.20;18.20;;;26.60;94.70;;;;;;4362503;32;20184;-64
2021/09/09 11:11:46;;;;;;;23.77;21.02;;;26.70;95.00;;;;;;4393574;32;20159;-63
2021/09/09 11:14:14;;;;;;;24.37;21.77;;;26.80;94.90;;;;;;4403206;32;20551;-63
2021/09/09 11:16:41;;;;;;;27.30;23.75;;;26.90;95.00;;;;;;4408132;32;20209;-65
2021/09/09 11:19:10;;;;;;;31.90;25.12;;;26.90;95.10;;;;;;4405109;32;20151;-66
2021/09/09 11:21:41;;;;;;;22.60;19.67;;;26.90;95.00;;;;;;4405872;32;20580;-65
2021/09/09 11:24:09;;;;;;;27.87;24.75;;;26.90;95.20;;;;;;4402071;32;20158;-63
2021/09/09 11:26:38;;;;;;;25.90;23.23;;;27.00;94.80;;;;;;4403641;32;20182;-64
2021/09/09 11:29:05;;;;;;;25.27;22.67;;;27.10;95.10;;;;;;4402591;32;20592;-65
2021/09/09 11:31:43;;;;;;;25.55;22.90;;;27.30;94.80;;;;;;4406196;32;20159;-64
2021/09/09 11:34:10;;;;;;;24.35;22.05;;;27.40;94.70;;;;;;4404828;32;20156;-63
2021/09/09 11:36:40;;;;;;;23.80;21.52;;;27.40;94.50;;;;;;4406113;32;20545;-65
2021/09/09 11:39:10;;;;;;;23.75;20.55;;;27.40;95.00;;;;;;4400784;32;20170;-63
2021/09/09 11:41:38;;;;;;;24.23;21.62;;;27.80;94.90;;;;;;4394444;32;20238;-63
2021/09/09 11:44:06;;;;;;;24.35;21.85;;;28.20;94.20;;;;;;4405053;32;20164;-64
2021/09/09 11:46:36;;;;;;;22.62;20.23;;;28.50;93.40;;;;;;4404012;32;20222;-65
2021/09/09 11:49:05;;;;;;;23.25;20.80;;;28.40;93.60;;;;;;4403167;32;20214;-63
2021/09/09 11:51:34;;;;;;;20.33;18.20;;;28.50;93.60;;;;;;4347759;32;1747408;-66
2021/09/09 11:54:01;;;;;;;24.23;19.42;;;28.30;94.00;;;;;;4405242;32;20144;-63
2021/09/09 11:56:28;;;;;;;20.52;18.30;;;28.20;93.70;;;;;;4399321;32;20455;-64
2021/09/09 11:58:58;;;;;;;20.77;18.45;;;28.30;93.90;;;;;;4391207;32;20170;-66
2021/09/09 12:01:25;;;;;;;21.65;18.90;;;28.10;94.00;;;;;;4403166;32;20231;-65
2021/09/09 12:03:54;;;;;;;22.23;19.87;;;27.80;94.30;;;;;;4401985;32;20145;-66
2021/09/09 12:06:22;;;;;;;20.80;18.17;;;27.70;94.70;;;;;;4404701;32;20167;-65
2021/09/09 12:08:49;;;;;;;19.02;17.10;;;27.50;95.00;;;;;;4405486;32;20131;-64
2021/09/09 12:11:17;;;;;;;17.65;15.32;;;27.40;95.40;;;;;;4403362;32;20170;-64
2021/09/09 12:13:44;;;;;;;22.55;18.35;;;27.50;95.90;;;;;;4404491;32;20643;-68
2021/09/09 12:16:17;;;;;;;18.70;16.20;;;27.60;95.70;;;;;;4406032;32;20144;-65
2021/09/09 12:18:47;;;;;;;18.62;16.27;;;27.60;96.00;;;;;;4405898;32;20214;-65
2021/09/09 12:21:17;;;;;;;20.42;16.80;;;27.60;95.90;;;;;;4404103;32;20193;-66
2021/09/09 12:24:03;;;;;;;17.20;14.82;;;27.60;95.90;;;;;;4401758;32;20219;-64
2021/09/09 12:26:31;;;;;;;18.33;16.62;;;27.50;96.40;;;;;;4402890;32;20218;-64
2021/09/09 12:28:58;;;;;;;16.40;14.90;;;27.50;96.50;;;;;;4402294;32;20165;-65
2021/09/09 12:31:33;;;;;;;18.33;16.62;;;27.40;96.70;;;;;;4403352;32;20218;-64